createdAt,value
2023-05-09T00:01:31.442Z,52.03
2023-05-09T00:03:59.643Z,49.72
2023-05-09T00:06:27.747Z,54.53
2023-05-09T00:08:55.795Z,51.80
2023-05-09T00:11:22.962Z,56.40
2023-05-09T00:13:50.725Z,50.95
2023-05-09T00:16:18.586Z,55.20
2023-05-09T00:18:45.776Z,53.78
2023-05-09T00:21:12.808Z,50.05
2023-05-09T00:23:39.896Z,56.05
2023-05-09T00:26:07.111Z,50.33
2023-05-09T00:28:34.191Z,52.65
2023-05-09T00:31:01.455Z,56.42
2023-05-09T00:33:28.822Z,50.72
2023-05-09T00:35:56.252Z,59.10
2023-05-09T00:38:23.834Z,57.20
2023-05-09T00:40:51.378Z,50.40
2023-05-09T00:43:18.628Z,52.75
2023-05-09T00:45:46.191Z,49.33
2023-05-09T00:48:15.377Z,50.03
2023-05-09T00:50:43.216Z,52.72
2023-05-09T00:53:10.597Z,54.83
2023-05-09T00:55:38.126Z,49.90
2023-05-09T00:58:06.203Z,58.50
2023-05-09T01:00:33.690Z,49.10
2023-05-09T01:03:01.065Z,56.13
2023-05-09T01:05:37.024Z,55.65
2023-05-09T01:08:13.148Z,57.13
2023-05-09T01:10:58.343Z,56.22
2023-05-09T01:13:51.860Z,53.33
2023-05-09T01:16:43.163Z,51.42
2023-05-09T01:19:28.802Z,53.28
2023-05-09T01:21:57.076Z,55.03
2023-05-09T01:24:32.838Z,55.00
2023-05-09T01:27:27.062Z,57.22
2023-05-09T01:30:02.986Z,53.47
2023-05-09T01:32:32.833Z,47.97
2023-05-09T01:35:02.632Z,56.10
2023-05-09T01:37:35.898Z,54.63
2023-05-09T01:40:23.964Z,59.42
2023-05-09T01:43:03.954Z,60.60
2023-05-09T01:45:32.725Z,58.65
2023-05-09T01:48:00.836Z,55.40
2023-05-09T01:50:30.063Z,53.13
2023-05-09T01:52:59.502Z,54.22
2023-05-09T01:55:28.906Z,55.45
2023-05-09T01:57:58.697Z,52.20
2023-05-09T02:00:27.165Z,63.05
2023-05-09T02:02:55.531Z,60.47
2023-05-09T02:05:27.204Z,56.97
2023-05-09T02:07:59.307Z,61.30
2023-05-09T02:10:29.332Z,63.10
2023-05-09T02:12:57.427Z,51.95
2023-05-09T02:15:24.798Z,58.50
2023-05-09T02:17:52.419Z,55.33
2023-05-09T02:20:20.144Z,58.13
2023-05-09T02:22:47.936Z,53.08
2023-05-09T02:25:15.506Z,57.42
2023-05-09T02:27:46.651Z,58.22
2023-05-09T02:30:20.620Z,63.97
2023-05-09T02:32:50.569Z,56.28
2023-05-09T02:35:18.785Z,56.70
2023-05-09T02:37:47.013Z,54.33
2023-05-09T02:40:14.742Z,53.45
2023-05-09T02:42:41.936Z,55.28
2023-05-09T02:45:10.555Z,53.97
2023-05-09T02:47:38.496Z,52.72
2023-05-09T02:50:06.684Z,60.63
2023-05-09T02:52:33.839Z,52.78
2023-05-09T02:55:00.882Z,50.40
2023-05-09T02:57:27.969Z,57.78
2023-05-09T02:59:55.138Z,53.10
2023-05-09T03:02:23.770Z,55.92
2023-05-09T03:04:50.985Z,57.33
2023-05-09T03:07:18.090Z,61.67
2023-05-09T03:09:45.162Z,55.90
2023-05-09T03:12:12.213Z,60.70
2023-05-09T03:14:39.327Z,52.03
2023-05-09T03:17:06.433Z,61.63
2023-05-09T03:19:33.652Z,56.92
2023-05-09T03:22:00.872Z,58.55
2023-05-09T03:24:30.787Z,62.25
2023-05-09T03:26:57.833Z,54.42
2023-05-09T03:29:25.931Z,60.17
2023-05-09T03:31:53.162Z,53.47
2023-05-09T03:34:20.373Z,57.42
2023-05-09T03:36:47.439Z,58.22
2023-05-09T03:39:14.454Z,48.10
2023-05-09T03:41:43.616Z,51.97
2023-05-09T03:44:10.717Z,57.25
2023-05-09T03:46:37.802Z,58.90
2023-05-09T03:49:05.120Z,56.28
2023-05-09T03:51:32.665Z,54.95
2023-05-09T03:53:59.997Z,53.35
2023-05-09T03:56:27.210Z,56.28
2023-05-09T03:58:54.288Z,49.20
2023-05-09T04:01:21.358Z,52.10
2023-05-09T04:03:48.404Z,55.97
2023-05-09T04:06:15.998Z,52.08
2023-05-09T04:08:43.167Z,62.40
2023-05-09T04:11:10.355Z,52.92
2023-05-09T04:13:37.482Z,56.38
2023-05-09T04:16:05.057Z,56.80
2023-05-09T04:18:32.124Z,57.47
2023-05-09T04:20:59.130Z,47.05
2023-05-09T04:23:26.201Z,52.55
2023-05-09T04:25:54.314Z,49.53
2023-05-09T04:28:21.431Z,55.80
2023-05-09T04:30:48.553Z,46.30
2023-05-09T04:33:15.982Z,49.85
2023-05-09T04:35:43.126Z,46.40
2023-05-09T04:38:10.358Z,50.28
2023-05-09T04:40:37.536Z,50.65
2023-05-09T04:43:05.213Z,43.17
2023-05-09T04:45:32.303Z,38.97
2023-05-09T04:47:59.393Z,43.78
2023-05-09T04:50:26.547Z,44.17
2023-05-09T04:52:53.511Z,39.28
2023-05-09T04:55:20.568Z,36.25
2023-05-09T04:57:47.683Z,40.92
2023-05-09T05:00:17.076Z,42.63
2023-05-09T05:02:44.217Z,38.22
2023-05-09T05:05:12.634Z,41.83
2023-05-09T05:07:39.907Z,33.90
2023-05-09T05:10:07.532Z,36.20
2023-05-09T05:12:34.676Z,30.60
2023-05-09T05:15:02.077Z,35.08
2023-05-09T05:17:29.596Z,37.95
2023-05-09T05:19:56.870Z,34.67
2023-05-09T05:22:24.300Z,35.33
2023-05-09T05:24:51.375Z,31.85
2023-05-09T05:27:18.488Z,33.90
2023-05-09T05:29:45.969Z,36.85
2023-05-09T05:32:13.094Z,29.45
2023-05-09T05:34:40.213Z,26.25
2023-05-09T05:37:07.362Z,29.75
2023-05-09T05:39:34.458Z,26.15
2023-05-09T05:42:01.926Z,23.02
2023-05-09T05:44:29.089Z,28.52
2023-05-09T05:46:56.205Z,29.33
2023-05-09T05:49:25.047Z,22.15
2023-05-09T05:51:52.174Z,29.48
2023-05-09T05:54:19.257Z,29.33
2023-05-09T05:56:46.771Z,23.25
2023-05-09T05:59:13.809Z,25.42
2023-05-09T06:01:41.221Z,23.10
2023-05-09T06:04:08.507Z,23.55
2023-05-09T06:06:36.378Z,25.58
2023-05-09T06:09:03.478Z,18.50
2023-05-09T06:11:30.553Z,21.80
2023-05-09T06:13:57.656Z,22.63
2023-05-09T06:16:24.902Z,22.83
2023-05-09T06:18:54.890Z,21.02
2023-05-09T06:21:23.216Z,23.88
2023-05-09T06:24:02.066Z,23.17
2023-05-09T06:26:36.234Z,24.67
2023-05-09T06:29:04.523Z,23.67
2023-05-09T06:31:31.791Z,22.88
2023-05-09T06:33:58.894Z,25.70
2023-05-09T06:36:26.213Z,22.05
2023-05-09T06:38:54.104Z,25.83
2023-05-09T06:41:21.795Z,29.52
2023-05-09T06:43:49.901Z,21.33
2023-05-09T06:46:17.211Z,23.55
2023-05-09T06:48:44.613Z,23.27
2023-05-09T06:51:11.655Z,20.42
2023-05-09T06:53:38.673Z,23.40
2023-05-09T06:56:06.925Z,21.73
2023-05-09T06:58:34.098Z,21.38
2023-05-09T07:01:01.629Z,20.65
2023-05-09T07:03:28.759Z,27.92
2023-05-09T07:05:58.794Z,18.15
2023-05-09T07:08:26.708Z,23.77
2023-05-09T07:10:53.849Z,22.85
2023-05-09T07:13:21.035Z,24.52
2023-05-09T07:15:48.145Z,18.20
2023-05-09T07:18:15.814Z,26.02
2023-05-09T07:20:42.922Z,18.52
2023-05-09T07:23:09.952Z,18.98
2023-05-09T07:25:37.065Z,19.02
2023-05-09T07:28:04.347Z,21.92
2023-05-09T07:30:31.452Z,21.13
2023-05-09T07:32:58.587Z,19.20
2023-05-09T07:35:26.354Z,19.23
2023-05-09T07:37:53.662Z,21.75
2023-05-09T07:40:20.817Z,18.52
2023-05-09T07:42:49.925Z,22.30
2023-05-09T07:45:18.357Z,20.65
2023-05-09T07:47:47.233Z,24.98
2023-05-09T07:50:14.288Z,22.08
2023-05-09T07:52:41.432Z,18.42
2023-05-09T07:55:09.053Z,23.00
2023-05-09T07:57:37.089Z,21.25
2023-05-09T08:00:06.875Z,21.70
2023-05-09T08:02:34.043Z,22.60
2023-05-09T08:05:01.769Z,19.52
2023-05-09T08:07:28.888Z,21.17
2023-05-09T08:09:56.066Z,23.50
2023-05-09T08:12:23.105Z,24.40
2023-05-09T08:14:50.266Z,19.65
2023-05-09T08:17:17.600Z,20.20
2023-05-09T08:19:44.686Z,16.67
2023-05-09T08:22:18.633Z,18.48
2023-05-09T08:24:46.972Z,20.42
2023-05-09T08:27:15.780Z,18.42
2023-05-09T08:29:43.607Z,19.88
2023-05-09T08:32:10.727Z,17.55
2023-05-09T08:34:37.850Z,20.73
2023-05-09T08:37:05.289Z,17.50
2023-05-09T08:39:34.787Z,17.00
2023-05-09T08:42:02.498Z,18.33
2023-05-09T08:44:32.121Z,18.70
2023-05-09T08:47:00.836Z,17.92
2023-05-09T08:49:28.711Z,16.90
2023-05-09T08:51:57.019Z,15.85
2023-05-09T08:54:24.898Z,18.23
2023-05-09T08:56:52.244Z,20.15
2023-05-09T08:59:19.630Z,14.95
2023-05-09T09:01:47.446Z,15.80
2023-05-09T09:04:14.883Z,14.05
2023-05-09T09:06:42.650Z,17.63
2023-05-09T09:09:11.879Z,12.35
2023-05-09T09:11:40.665Z,16.75
2023-05-09T09:14:20.180Z,12.32
2023-05-09T09:16:49.749Z,10.77
2023-05-09T09:19:18.044Z,11.05
2023-05-09T09:21:47.493Z,9.85
2023-05-09T09:24:15.553Z,9.27
2023-05-09T09:26:47.846Z,11.63
2023-05-09T09:29:16.230Z,13.18
2023-05-09T09:31:48.163Z,13.48
2023-05-09T09:34:21.336Z,10.55
2023-05-09T09:36:49.138Z,11.20
2023-05-09T09:39:16.704Z,8.90
2023-05-09T09:41:44.920Z,10.82
2023-05-09T09:44:14.619Z,9.82
2023-05-09T09:46:52.646Z,11.93
2023-05-09T09:49:25.778Z,11.50
2023-05-09T09:51:54.752Z,9.80
2023-05-09T09:54:22.638Z,9.20
2023-05-09T09:56:56.471Z,8.48
2023-05-09T09:59:25.744Z,7.22
2023-05-09T10:02:04.017Z,9.32
2023-05-09T10:04:41.730Z,13.18
2023-05-09T10:07:14.353Z,8.27
2023-05-09T10:09:43.710Z,9.13
2023-05-09T10:12:11.893Z,7.75
2023-05-09T10:14:42.529Z,8.98
2023-05-09T10:17:13.549Z,7.07
2023-05-09T10:19:46.059Z,7.10
2023-05-09T10:22:16.066Z,7.72
2023-05-09T10:24:57.957Z,11.32
2023-05-09T10:27:28.796Z,8.45
2023-05-09T10:30:08.744Z,10.43
2023-05-09T10:32:38.556Z,10.77
2023-05-09T10:35:08.438Z,9.98
2023-05-09T10:37:35.830Z,9.10
2023-05-09T10:40:05.442Z,8.13
2023-05-09T10:42:36.555Z,7.57
2023-05-09T10:45:03.731Z,8.65
2023-05-09T10:47:33.245Z,10.20
2023-05-09T10:50:00.697Z,7.63
2023-05-09T10:53:07.373Z,7.45
2023-05-09T10:55:53.080Z,8.40
2023-05-09T10:58:21.747Z,7.90
2023-05-09T11:00:49.786Z,9.95
2023-05-09T11:03:20.936Z,8.15
2023-05-09T11:05:50.382Z,10.45
2023-05-09T11:08:26.276Z,10.50
2023-05-09T11:10:58.176Z,8.60
2023-05-09T11:13:26.281Z,7.35
2023-05-09T11:15:59.089Z,8.77
2023-05-09T11:18:26.431Z,8.87
2023-05-09T11:20:53.854Z,11.93
2023-05-09T11:23:25.470Z,9.18
2023-05-09T11:25:53.736Z,7.10
2023-05-09T11:28:32.413Z,8.20
2023-05-09T11:31:12.676Z,8.07
2023-05-09T11:33:40.970Z,8.98
2023-05-09T11:36:30.068Z,7.95
2023-05-09T11:39:11.506Z,12.35
2023-05-09T11:41:48.781Z,8.00
2023-05-09T11:44:20.969Z,8.73
2023-05-09T11:46:49.223Z,8.00
2023-05-09T11:49:17.206Z,7.97
2023-05-09T11:51:44.419Z,6.90
2023-05-09T11:54:13.630Z,7.57
2023-05-09T11:56:42.026Z,7.97
2023-05-09T11:59:10.544Z,9.23
2023-05-09T12:01:37.818Z,9.20
2023-05-09T12:04:08.675Z,9.88
2023-05-09T12:06:37.026Z,9.50
2023-05-09T12:09:04.179Z,8.18
2023-05-09T12:11:32.407Z,9.63
2023-05-09T12:13:59.601Z,9.45
2023-05-09T12:16:26.871Z,7.38
2023-05-09T12:18:54.742Z,8.18
2023-05-09T12:21:22.105Z,11.48
2023-05-09T12:23:51.232Z,8.82
2023-05-09T12:26:22.146Z,10.38
2023-05-09T12:28:49.977Z,7.93
2023-05-09T12:31:17.592Z,8.55
2023-05-09T12:33:44.805Z,9.43
2023-05-09T12:36:13.718Z,8.00
2023-05-09T12:38:41.198Z,8.85
2023-05-09T12:41:18.851Z,10.27
2023-05-09T12:43:57.166Z,10.45
2023-05-09T12:46:24.372Z,8.85
2023-05-09T12:48:51.764Z,10.93
2023-05-09T12:51:20.611Z,9.63
2023-05-09T12:53:48.412Z,9.27
2023-05-09T12:56:17.673Z,11.48
2023-05-09T12:58:52.121Z,9.60
2023-05-09T13:01:20.808Z,9.23
2023-05-09T13:04:02.751Z,10.52
2023-05-09T13:06:30.733Z,8.88
2023-05-09T13:09:06.634Z,7.15
2023-05-09T13:11:33.825Z,6.80
2023-05-09T13:14:03.269Z,9.05
2023-05-09T13:16:30.431Z,7.63
2023-05-09T13:18:58.074Z,7.40
2023-05-09T13:21:25.318Z,6.65
2023-05-09T13:23:52.632Z,7.32
2023-05-09T13:26:19.850Z,7.30
2023-05-09T13:28:47.582Z,7.00
2023-05-09T13:31:14.794Z,8.63
2023-05-09T13:33:41.952Z,8.10
2023-05-09T13:36:09.101Z,8.20
2023-05-09T13:38:40.430Z,6.63
2023-05-09T13:41:08.310Z,8.45
2023-05-09T13:43:37.156Z,9.38
2023-05-09T13:46:04.243Z,7.47
2023-05-09T13:48:42.383Z,6.85
2023-05-09T14:37:14.088Z,9.23
2023-05-09T14:47:13.106Z,5.28
2023-05-09T14:54:04.456Z,6.60
2023-05-09T14:56:31.804Z,7.53
2023-05-09T14:58:58.948Z,5.88
2023-05-09T15:01:26.143Z,10.00
2023-05-09T15:03:53.412Z,4.63
2023-05-09T15:06:20.767Z,5.00
2023-05-09T15:08:47.918Z,6.28
2023-05-09T15:11:14.958Z,5.00
2023-05-09T15:13:42.074Z,4.57
2023-05-09T15:16:09.142Z,4.57
2023-05-09T15:18:36.712Z,5.43
2023-05-09T15:21:03.996Z,5.70
2023-05-09T15:23:31.061Z,10.73
2023-05-09T15:25:58.213Z,5.68
2023-05-09T15:28:25.479Z,6.50
2023-05-09T15:30:52.696Z,7.10
2023-05-09T15:33:19.832Z,11.13
2023-05-09T15:35:49.111Z,7.10
2023-05-09T15:38:17.178Z,6.32
2023-05-09T15:40:44.402Z,5.43
2023-05-09T15:43:12.983Z,6.32
2023-05-09T15:47:17.672Z,5.75
2023-05-09T15:49:44.959Z,6.63
2023-05-09T15:52:12.538Z,4.50
2023-05-09T15:54:40.049Z,5.60
2023-05-09T15:57:08.160Z,6.70
2023-05-09T15:59:35.916Z,5.78
2023-05-09T16:02:03.256Z,5.97
2023-05-09T16:04:30.595Z,6.05
2023-05-09T16:06:57.823Z,6.70
2023-05-09T16:09:25.381Z,5.28
2023-05-09T16:11:52.791Z,5.80
2023-05-09T16:14:20.057Z,4.80
2023-05-09T16:16:49.981Z,5.50
2023-05-09T16:19:17.770Z,5.25
2023-05-09T16:21:47.715Z,5.78
2023-05-09T16:24:14.887Z,5.10
2023-05-09T16:26:41.994Z,4.50
2023-05-09T16:29:09.911Z,7.13
2023-05-09T16:31:37.361Z,2.30
2023-05-09T16:34:04.711Z,3.85
2023-05-09T16:36:32.819Z,2.88
2023-05-09T16:38:59.993Z,3.00
2023-05-09T16:41:27.196Z,3.08
2023-05-09T16:43:54.415Z,3.75
2023-05-09T16:46:21.692Z,4.35
2023-05-09T16:48:51.735Z,3.90
2023-05-09T16:51:18.788Z,3.85
2023-05-09T16:53:46.067Z,3.78
2023-05-09T16:56:13.228Z,3.55
2023-05-09T16:58:40.336Z,3.78
2023-05-09T17:01:07.440Z,4.68
2023-05-09T17:03:34.673Z,4.22
2023-05-09T17:06:01.874Z,4.65
2023-05-09T17:08:29.768Z,5.22
2023-05-09T17:10:57.624Z,4.55
2023-05-09T17:13:24.907Z,5.22
2023-05-09T17:15:52.700Z,7.20
2023-05-09T17:18:33.396Z,7.15
2023-05-09T17:21:05.057Z,5.38
2023-05-09T17:23:32.448Z,6.75
2023-05-09T17:25:59.598Z,10.60
2023-05-09T17:28:26.956Z,6.25
2023-05-09T17:30:54.081Z,8.55
2023-05-09T17:33:21.221Z,6.68
2023-05-09T17:35:49.570Z,6.32
2023-05-09T17:38:17.360Z,6.53
2023-05-09T17:40:44.942Z,7.97
2023-05-09T17:43:13.321Z,7.07
2023-05-09T17:45:40.421Z,6.60
2023-05-09T17:48:08.088Z,7.28
2023-05-09T17:50:35.267Z,7.82
2023-05-09T17:53:02.564Z,7.38
2023-05-09T17:55:30.373Z,7.72
2023-05-09T17:57:57.422Z,8.73
2023-05-09T18:00:24.523Z,9.45
2023-05-09T18:02:51.743Z,7.05
2023-05-09T18:05:18.873Z,7.13
2023-05-09T18:07:46.007Z,12.93
2023-05-09T18:10:13.534Z,8.85
2023-05-09T18:12:40.922Z,8.38
2023-05-09T18:15:08.559Z,8.70
2023-05-09T18:17:36.057Z,8.63
2023-05-09T18:20:05.031Z,9.05
2023-05-09T18:22:32.089Z,9.30
2023-05-09T18:24:59.383Z,8.65
2023-05-09T18:27:27.200Z,10.27
2023-05-09T18:29:54.346Z,9.80
2023-05-09T18:32:21.878Z,9.05
2023-05-09T18:34:49.390Z,10.15
2023-05-09T18:37:17.116Z,8.95
2023-05-09T18:39:44.775Z,8.18
2023-05-09T18:42:12.942Z,9.25
2023-05-09T18:44:41.690Z,9.30
2023-05-09T18:47:08.769Z,9.40
2023-05-09T18:49:36.172Z,9.23
2023-05-09T18:52:03.458Z,11.85
2023-05-09T18:54:30.703Z,11.43
2023-05-09T18:56:58.077Z,8.52
2023-05-09T18:59:25.165Z,8.20
2023-05-09T19:01:52.384Z,8.23
2023-05-09T19:04:19.949Z,9.00
2023-05-09T19:06:47.266Z,8.77
2023-05-09T19:09:14.450Z,9.65
2023-05-09T19:11:41.935Z,8.05
2023-05-09T19:14:09.127Z,11.75
2023-05-09T19:16:36.363Z,7.20
2023-05-09T19:19:03.484Z,7.82
2023-05-09T19:21:30.663Z,8.75
2023-05-09T19:23:57.767Z,8.20
2023-05-09T19:26:24.881Z,9.55
2023-05-09T19:28:51.976Z,8.00
2023-05-09T19:31:20.461Z,8.00
2023-05-09T19:33:47.953Z,10.15
2023-05-09T19:36:15.107Z,8.90
2023-05-09T19:38:42.297Z,11.15
2023-05-09T19:41:10.867Z,8.65
2023-05-09T19:43:37.983Z,8.68
2023-05-09T19:46:05.173Z,7.88
2023-05-09T19:48:32.298Z,8.88
2023-05-09T19:50:59.438Z,9.35
2023-05-09T19:53:26.658Z,8.93
2023-05-09T19:55:53.693Z,7.95
2023-05-09T19:58:20.893Z,8.48
2023-05-09T20:00:48.557Z,7.90
2023-05-09T20:03:15.803Z,8.23
2023-05-09T20:05:43.188Z,10.10
2023-05-09T20:08:10.493Z,8.60
2023-05-09T20:10:37.620Z,7.55
2023-05-09T20:13:04.983Z,6.53
2023-05-09T20:15:32.345Z,6.78
2023-05-09T20:18:03.238Z,9.55
2023-05-09T20:20:33.592Z,6.15
2023-05-09T20:23:00.761Z,8.38
2023-05-09T20:25:27.927Z,7.40
2023-05-09T20:27:55.023Z,8.70
2023-05-09T20:30:22.229Z,7.93
2023-05-09T20:32:49.465Z,7.57
2023-05-09T20:35:17.293Z,7.43
2023-05-09T20:37:44.371Z,7.75
2023-05-09T20:40:12.236Z,8.88
2023-05-09T20:42:39.310Z,8.63
2023-05-09T20:45:07.740Z,9.00
2023-05-09T20:47:35.231Z,10.75
2023-05-09T20:50:02.379Z,8.48
2023-05-09T20:52:29.457Z,10.30
2023-05-09T20:54:56.657Z,10.65
2023-05-09T20:57:23.801Z,9.70
2023-05-09T20:59:50.952Z,10.50
2023-05-09T21:02:18.073Z,8.50
2023-05-09T21:04:45.257Z,12.38
2023-05-09T21:07:12.458Z,8.02
2023-05-09T21:09:39.704Z,9.30
2023-05-09T21:12:09.190Z,9.75
2023-05-09T21:14:37.667Z,11.85
2023-05-09T21:17:05.466Z,9.23
2023-05-09T21:19:34.143Z,20.98
2023-05-09T21:22:01.601Z,12.27
2023-05-09T21:24:28.787Z,14.60
2023-05-09T21:26:56.143Z,11.50
2023-05-09T21:29:23.221Z,11.45
2023-05-09T21:31:50.343Z,9.73
2023-05-09T21:34:18.723Z,11.27
2023-05-09T21:36:46.136Z,12.15
2023-05-09T21:39:13.323Z,11.98
2023-05-09T21:41:42.659Z,15.30
2023-05-09T21:44:11.251Z,13.35
2023-05-09T21:46:38.540Z,15.88
2023-05-09T21:49:06.561Z,16.45
2023-05-09T21:51:34.231Z,16.15
2023-05-09T21:54:01.990Z,13.15
2023-05-09T21:56:29.539Z,15.25
2023-05-09T21:58:56.687Z,16.05
2023-05-09T22:01:23.888Z,16.58
2023-05-09T22:03:51.692Z,17.05
2023-05-09T22:06:18.946Z,18.10
2023-05-09T22:08:46.167Z,17.02
2023-05-09T22:11:14.761Z,14.10
2023-05-09T22:13:42.425Z,18.60
2023-05-09T22:16:09.756Z,16.38
2023-05-09T22:18:37.145Z,16.25
2023-05-09T22:21:05.227Z,16.42
2023-05-09T22:23:32.300Z,18.08
2023-05-09T22:25:59.314Z,19.42
2023-05-09T22:28:26.379Z,20.10
2023-05-09T22:30:53.419Z,22.65
2023-05-09T22:33:20.473Z,22.55
2023-05-09T22:35:47.908Z,20.65
2023-05-09T22:38:15.147Z,21.10
2023-05-09T22:40:42.330Z,22.05
2023-05-09T22:43:10.847Z,23.58
2023-05-09T22:45:41.011Z,18.90
2023-05-09T22:48:08.364Z,26.23
2023-05-09T22:50:36.020Z,23.83
2023-05-09T22:53:03.090Z,21.30
2023-05-09T22:55:30.379Z,22.23
2023-05-09T22:57:57.378Z,30.13
2023-05-09T23:00:24.523Z,25.63
2023-05-09T23:02:51.777Z,25.25
2023-05-09T23:05:18.964Z,24.80
2023-05-09T23:07:46.190Z,28.13
2023-05-09T23:10:13.412Z,28.55
2023-05-09T23:12:40.611Z,26.45
2023-05-09T23:15:08.464Z,24.17
2023-05-09T23:17:35.995Z,26.25
2023-05-09T23:20:04.058Z,32.55
2023-05-09T23:22:31.165Z,29.63
2023-05-09T23:25:00.751Z,26.58
2023-05-09T23:27:28.350Z,27.52
2023-05-09T23:29:55.382Z,34.45
2023-05-09T23:32:22.523Z,33.60
2023-05-09T23:34:49.640Z,30.88
2023-05-09T23:37:17.657Z,34.70
2023-05-09T23:39:44.780Z,32.00
2023-05-09T23:42:12.386Z,35.00
2023-05-09T23:44:39.591Z,38.17
2023-05-09T23:47:06.997Z,38.28
2023-05-09T23:49:34.152Z,33.42
2023-05-09T23:52:01.655Z,35.70
2023-05-09T23:54:28.790Z,36.65
2023-05-09T23:56:59.004Z,33.67
2023-05-09T23:59:26.128Z,36.47
